Time;durP1;ratioP1;P1;durP2;ratioP2;P2;SDS_P1;SDS_P2;PMS_P1;PMS_P2;Temp;Humidity;BMP_temperature;BMP_pressure;BME280_temperature;BME280_humidity;BME280_pressure;Samples;Min_cycle;Max_cycle;Signal;HPM_P1;HPM_P2
2021/08/26 08:28:52;;;;;;;6.20;2.42;;;;;;;;;;5070588;28;20593;-74
2021/08/26 08:31:18;;;;;;;2.80;2.55;;;;;;;;;;5070706;28;20172;-74
2021/08/26 08:33:46;;;;;;;3.42;1.98;;;;;;;;;;5070482;28;20283;-75
2021/08/26 08:36:12;;;;;;;1.70;1.60;;;;;;;;;;5070732;28;20157;-75
2021/08/26 08:38:38;;;;;;;2.03;1.83;;;;;;;;;;5070499;28;20179;-74
2021/08/26 08:41:04;;;;;;;2.40;1.73;;;;;;;;;;5070407;28;20176;-74
2021/08/26 08:43:30;;;;;;;4.32;2.53;;;;;;;;;;5070383;28;20172;-74
2021/08/26 08:45:57;;;;;;;3.53;2.25;;;;;;;;;;5070356;28;20543;-75
2021/08/26 08:48:25;;;;;;;7.72;2.40;;;;;;;;;;5068946;28;20203;-75
2021/08/26 08:50:51;;;;;;;3.13;2.10;;;;;;;;;;5070264;28;20176;-75
2021/08/26 08:53:17;;;;;;;4.07;2.40;;;;;;;;;;5070248;28;20188;-75
2021/08/26 08:55:44;;;;;;;2.40;2.25;;;;;;;;;;5070203;28;20247;-75
2021/08/26 08:58:10;;;;;;;5.63;2.30;;;;;;;;;;5070144;28;20657;-75
2021/08/26 09:00:36;;;;;;;5.28;2.65;;;;;;;;;;5068793;28;20184;-75
2021/08/26 09:03:02;;;;;;;2.22;2.03;;;;;;;;;;5070054;28;20165;-75
2021/08/26 09:05:47;;;;;;;7.03;2.10;;;;;;;;;;5070066;28;20207;-75
2021/08/26 09:08:14;;;;;;;3.42;2.30;;;;;;;;;;5069778;28;20230;-75
2021/08/26 09:10:40;;;;;;;2.22;2.10;;;;;;;;;;5069953;28;20189;-75
2021/08/26 09:13:08;;;;;;;2.97;2.63;;;;;;;;;;5069777;28;20173;-75
2021/08/26 09:15:34;;;;;;;4.30;2.53;;;;;;;;;;5069838;28;20160;-75
2021/08/26 09:18:12;;;;;;;4.03;2.05;;;;;;;;;;5068446;28;20198;-75
2021/08/26 09:20:48;;;;;;;4.38;2.42;;;;;;;;;;5069674;28;20173;-75
2021/08/26 09:23:14;;;;;;;4.50;2.60;;;;;;;;;;5069666;28;20200;-75
2021/08/26 09:25:42;;;;;;;5.10;3.03;;;;;;;;;;5069545;28;20240;-75
2021/08/26 09:28:08;;;;;;;6.13;3.45;;;;;;;;;;5069549;28;20298;-75
2021/08/26 09:30:34;;;;;;;3.08;2.88;;;;;;;;;;5069445;28;20168;-75
2021/08/26 09:33:01;;;;;;;5.30;3.47;;;;;;;;;;5069364;28;20184;-74
2021/08/26 09:35:31;;;;;;;6.35;4.30;;;;;;;;;;5069292;28;20238;-74
2021/08/26 09:37:58;;;;;;;10.65;4.45;;;;;;;;;;5067698;28;20164;-75
2021/08/26 09:40:26;;;;;;;7.63;4.43;;;;;;;;;;5055536;28;20192;-75
2021/08/26 09:42:56;;;;;;;5.55;4.50;;;;;;;;;;5056052;28;20211;-75
2021/08/26 09:45:23;;;;;;;6.57;4.88;;;;;;;;;;5055983;28;20639;-75
2021/08/26 09:48:02;;;;;;;16.65;5.78;;;;;;;;;;5054585;28;20607;-75
2021/08/26 09:50:39;;;;;;;11.18;6.82;;;;;;;;;;5055898;28;20626;-75
2021/08/26 09:53:05;;;;;;;7.95;4.93;;;;;;;;;;5056095;28;20195;-75
2021/08/26 09:55:52;;;;;;;6.75;4.00;;;;;;;;;;5055906;28;20195;-75
2021/08/26 09:58:22;;;;;;;6.25;3.88;;;;;;;;;;5055666;28;20196;-73
2021/08/26 10:00:48;;;;;;;6.45;4.80;;;;;;;;;;5055968;28;20558;-73
2021/08/26 10:03:15;;;;;;;11.95;5.13;;;;;;;;;;5055543;28;20219;-75
2021/08/26 10:05:43;;;;;;;5.75;5.18;;;;;;;;;;5054486;28;20511;-75
2021/08/26 10:08:09;;;;;;;11.10;5.15;;;;;;;;;;5055480;28;20197;-75
2021/08/26 10:10:35;;;;;;;10.20;5.25;;;;;;;;;;5055532;28;20544;-74
2021/08/26 10:13:01;;;;;;;6.65;4.70;;;;;;;;;;5055374;28;20171;-74
2021/08/26 10:15:28;;;;;;;5.20;4.30;;;;;;;;;;5055384;28;20169;-74
2021/08/26 10:17:54;;;;;;;8.57;4.35;;;;;;;;;;5055350;28;20562;-74
2021/08/26 10:20:23;;;;;;;7.70;4.70;;;;;;;;;;5055455;28;20178;-74
2021/08/26 10:22:49;;;;;;;6.53;4.70;;;;;;;;;;5055287;28;20256;-75
2021/08/26 10:25:16;;;;;;;6.93;4.05;;;;;;;;;;5055164;28;20178;-74
2021/08/26 10:27:43;;;;;;;4.05;3.65;;;;;;;;;;5054956;28;20705;-74
2021/08/26 10:30:09;;;;;;;9.25;3.78;;;;;;;;;;5055197;28;20161;-75
2021/08/26 10:32:35;;;;;;;5.03;3.53;;;;;;;;;;5055057;28;20184;-74
2021/08/26 10:35:12;;;;;;;7.40;3.67;;;;;;;;;;5054980;28;20678;-75
2021/08/26 10:37:50;;;;;;;5.00;2.97;;;;;;;;;;5055028;28;20169;-75
2021/08/26 10:40:31;;;;;;;6.03;3.38;;;;;;;;;;5054954;28;20169;-74
2021/08/26 10:42:58;;;;;;;4.60;2.97;;;;;;;;;;5055014;28;20252;-75
2021/08/26 10:45:34;;;;;;;7.45;3.80;;;;;;;;;;5054935;28;20502;-75
2021/08/26 10:48:01;;;;;;;7.80;3.00;;;;;;;;;;5053490;28;20204;-75
2021/08/26 10:50:28;;;;;;;5.32;2.78;;;;;;;;;;5053780;28;20537;-75
2021/08/26 10:52:58;;;;;;;4.63;2.67;;;;;;;;;;5054642;28;20560;-75
2021/08/26 10:55:31;;;;;;;5.82;2.92;;;;;;;;;;5054615;28;20192;-74
2021/08/26 10:58:16;;;;;;;8.45;3.00;;;;;;;;;;5054578;28;20165;-75
2021/08/26 11:00:42;;;;;;;5.30;2.53;;;;;;;;;;5053218;28;20268;-75
2021/08/26 11:03:08;;;;;;;8.18;3.08;;;;;;;;;;5054507;28;20176;-74
2021/08/26 11:05:35;;;;;;;7.82;2.70;;;;;;;;;;5054462;28;20177;-74
2021/08/26 11:08:12;;;;;;;6.38;2.88;;;;;;;;;;5053113;28;20204;-75
2021/08/26 11:10:38;;;;;;;8.88;2.60;;;;;;;;;;5054402;28;20290;-75
2021/08/26 11:13:32;;;;;;;6.82;3.45;;;;;;;;;;5054318;28;20227;-74
2021/08/26 11:16:18;;;;;;;3.45;2.80;;;;;;;;;;5053520;28;20203;-75
2021/08/26 11:18:44;;;;;;;11.27;3.70;;;;;;;;;;5054207;28;20169;-75
2021/08/26 11:21:10;;;;;;;7.50;4.03;;;;;;;;;;5054141;28;20626;-75
2021/08/26 11:23:45;;;;;;;6.93;3.42;;;;;;;;;;5054101;28;20169;-75
2021/08/26 11:26:30;;;;;;;6.57;3.80;;;;;;;;;;5054085;28;20175;-75
2021/08/26 11:29:16;;;;;;;5.30;4.28;;;;;;;;;;5054057;28;20207;-74
2021/08/26 11:31:43;;;;;;;7.30;4.50;;;;;;;;;;5053875;28;20208;-75
2021/08/26 11:34:09;;;;;;;11.00;6.70;;;;;;;;;;5052582;28;20562;-73
2021/08/26 11:36:35;;;;;;;13.32;7.43;;;;;;;;;;5053822;28;20681;-73
2021/08/26 11:39:01;;;;;;;14.45;5.95;;;;;;;;;;5052558;28;20227;-73
2021/08/26 11:41:27;;;;;;;9.40;5.88;;;;;;;;;;5052463;28;20169;-72
2021/08/26 11:43:53;;;;;;;10.75;5.10;;;;;;;;;;5053760;28;20645;-74
2021/08/26 11:46:19;;;;;;;7.97;6.00;;;;;;;;;;5053683;28;20176;-74
2021/08/26 11:48:50;;;;;;;6.65;5.90;;;;;;;;;;5053522;28;20723;-74
2021/08/26 11:51:20;;;;;;;7.20;5.57;;;;;;;;;;5052360;28;20709;-74
2021/08/26 11:53:46;;;;;;;8.52;6.13;;;;;;;;;;5052328;28;20165;-74
2021/08/26 11:56:12;;;;;;;8.52;6.05;;;;;;;;;;5053579;28;20241;-74
2021/08/26 11:58:38;;;;;;;10.15;4.68;;;;;;;;;;5052250;28;20275;-74
2021/08/26 12:01:04;;;;;;;5.97;4.80;;;;;;;;;;5053441;28;20169;-74
2021/08/26 12:03:30;;;;;;;6.90;5.05;;;;;;;;;;5053269;28;20165;-74
2021/08/26 12:05:56;;;;;;;7.22;4.68;;;;;;;;;;5053352;28;20173;-74
2021/08/26 12:08:21;;;;;;;6.13;5.13;;;;;;;;;;5053350;28;20196;-74
2021/08/26 12:10:48;;;;;;;8.05;4.85;;;;;;;;;;5053310;28;20169;-74
2021/08/26 12:13:15;;;;;;;10.18;5.85;;;;;;;;;;5053304;28;20165;-74
2021/08/26 12:15:42;;;;;;;7.47;5.47;;;;;;;;;;5053266;28;20172;-74
2021/08/26 12:18:10;;;;;;;10.50;5.95;;;;;;;;;;5053294;28;20177;-74
2021/08/26 12:20:41;;;;;;;5.00;4.25;;;;;;;;;;5053241;28;20164;-74
2021/08/26 12:23:07;;;;;;;8.40;4.28;;;;;;;;;;5053278;28;20169;-74
2021/08/26 12:25:38;;;;;;;12.18;4.88;;;;;;;;;;5051841;28;20187;-74
2021/08/26 12:28:06;;;;;;;9.10;4.65;;;;;;;;;;5052911;28;20267;-74
2021/08/26 12:30:37;;;;;;;8.18;5.15;;;;;;;;;;5053098;28;20169;-74
2021/08/26 12:33:17;;;;;;;7.35;6.63;;;;;;;;;;5051805;28;20181;-74
2021/08/26 12:35:46;;;;;;;8.38;5.65;;;;;;;;;;5051843;28;20176;-74
2021/08/26 12:38:14;;;;;;;6.90;4.47;;;;;;;;;;5053142;28;20638;-74
2021/08/26 12:40:51;;;;;;;6.50;3.63;;;;;;;;;;5051710;28;20196;-74
2021/08/26 12:43:17;;;;;;;3.90;3.53;;;;;;;;;;5053498;28;20172;-74
2021/08/26 12:45:44;;;;;;;7.35;4.07;;;;;;;;;;5051925;28;20592;-75
2021/08/26 12:48:21;;;;;;;7.93;4.22;;;;;;;;;;5053319;28;20204;-77
2021/08/26 12:50:48;;;;;;;4.97;4.20;;;;;;;;;;5051646;28;20571;-77
2021/08/26 12:53:18;;;;;;;6.80;4.47;;;;;;;;;;5052877;28;20165;-77
2021/08/26 12:55:59;;;;;;;7.20;4.15;;;;;;;;;;5052912;28;20222;-77
2021/08/26 12:58:26;;;;;;;7.70;4.57;;;;;;;;;;5052897;28;20180;-77
2021/08/26 13:00:52;;;;;;;6.43;4.10;;;;;;;;;;5052936;28;20165;-77
2021/08/26 13:03:18;;;;;;;8.38;5.50;;;;;;;;;;5052851;28;20589;-77
2021/08/26 13:05:45;;;;;;;6.78;4.28;;;;;;;;;;5052759;28;20181;-77
2021/08/26 13:08:11;;;;;;;9.82;6.20;;;;;;;;;;5052750;28;20192;-77
2021/08/26 13:10:37;;;;;;;9.23;5.38;;;;;;;;;;5052778;28;20176;-77
2021/08/26 13:13:14;;;;;;;7.40;5.07;;;;;;;;;;5052742;28;20173;-77
2021/08/26 13:15:40;;;;;;;13.48;5.80;;;;;;;;;;5056487;28;20638;-77
2021/08/26 13:18:07;;;;;;;8.27;5.25;;;;;;;;;;5056506;28;20175;-77
2021/08/26 13:20:37;;;;;;;10.20;6.10;;;;;;;;;;5056535;28;20496;-77
2021/08/26 13:23:09;;;;;;;10.57;6.28;;;;;;;;;;5056575;28;20278;-77
2021/08/26 13:25:36;;;;;;;11.93;6.32;;;;;;;;;;5056437;28;20176;-78
2021/08/26 13:28:02;;;;;;;9.18;5.50;;;;;;;;;;5056075;28;20224;-78
2021/08/26 13:30:28;;;;;;;6.75;6.15;;;;;;;;;;5055117;28;20173;-77
2021/08/26 13:32:54;;;;;;;9.82;5.90;;;;;;;;;;5056083;28;20165;-77
2021/08/26 13:35:21;;;;;;;7.80;5.88;;;;;;;;;;5056227;28;20168;-77
2021/08/26 13:37:48;;;;;;;8.05;5.20;;;;;;;;;;5054901;28;20251;-77
2021/08/26 13:40:15;;;;;;;8.02;5.57;;;;;;;;;;5056119;28;20531;-78
2021/08/26 13:42:42;;;;;;;7.03;5.07;;;;;;;;;;5056061;28;20169;-77
2021/08/26 13:45:08;;;;;;;18.40;6.50;;;;;;;;;;5056032;28;20203;-77
2021/08/26 13:47:34;;;;;;;11.98;5.95;;;;;;;;;;5054594;28;20196;-77
2021/08/26 13:50:00;;;;;;;10.70;5.55;;;;;;;;;;5055954;28;20169;-78
2021/08/26 13:52:27;;;;;;;12.38;5.20;;;;;;;;;;5055891;28;20645;-78
2021/08/26 13:54:53;;;;;;;11.00;4.28;;;;;;;;;;5055858;28;20176;-77
2021/08/26 13:57:19;;;;;;;6.40;3.90;;;;;;;;;;5055787;28;20600;-77
2021/08/26 13:59:45;;;;;;;3.88;3.58;;;;;;;;;;5054415;28;20173;-77
2021/08/26 14:02:11;;;;;;;5.40;4.53;;;;;;;;;;5055734;28;20172;-77
2021/08/26 14:04:37;;;;;;;4.10;3.83;;;;;;;;;;5055617;28;20173;-78
2021/08/26 14:07:05;;;;;;;6.47;3.85;;;;;;;;;;5055464;28;20199;-77
2021/08/26 14:09:31;;;;;;;5.80;4.07;;;;;;;;;;5055552;28;20664;-77
2021/08/26 14:11:57;;;;;;;7.20;4.43;;;;;;;;;;5055533;28;20184;-77
2021/08/26 14:14:23;;;;;;;8.77;4.00;;;;;;;;;;5055360;28;20522;-78
2021/08/26 14:16:49;;;;;;;6.57;4.30;;;;;;;;;;5055422;28;20227;-77
2021/08/26 14:19:15;;;;;;;5.15;4.15;;;;;;;;;;5055367;28;20169;-78
2021/08/26 14:21:41;;;;;;;8.70;5.22;;;;;;;;;;5055257;28;20172;-77
2021/08/26 14:24:07;;;;;;;7.32;4.20;;;;;;;;;;5055303;28;20172;-77
2021/08/26 14:26:33;;;;;;;9.35;4.13;;;;;;;;;;5053580;28;20626;-77
2021/08/26 14:28:59;;;;;;;4.35;3.38;;;;;;;;;;5053840;28;20173;-77
2021/08/26 14:31:25;;;;;;;5.70;3.67;;;;;;;;;;5053805;28;20184;-77
2021/08/26 14:33:52;;;;;;;9.40;3.92;;;;;;;;;;5055030;28;20188;-77
2021/08/26 14:36:18;;;;;;;5.97;3.50;;;;;;;;;;5055074;28;20196;-77
2021/08/26 14:38:44;;;;;;;5.88;3.10;;;;;;;;;;5054912;28;20228;-77
2021/08/26 14:41:10;;;;;;;5.55;3.28;;;;;;;;;;5054943;28;20690;-76
2021/08/26 14:43:37;;;;;;;5.18;3.42;;;;;;;;;;5054792;28;20169;-76
2021/08/26 14:46:03;;;;;;;7.38;3.10;;;;;;;;;;5054855;28;20641;-76
2021/08/26 14:48:29;;;;;;;5.35;2.75;;;;;;;;;;5054783;28;20199;-77
2021/08/26 14:50:57;;;;;;;5.60;3.13;;;;;;;;;;5054841;28;20176;-76
2021/08/26 14:53:23;;;;;;;6.35;2.92;;;;;;;;;;5054682;28;20183;-76
2021/08/26 14:55:50;;;;;;;4.68;2.83;;;;;;;;;;5054632;28;20551;-76
2021/08/26 14:58:16;;;;;;;4.65;2.97;;;;;;;;;;5054490;28;20673;-76
2021/08/26 15:00:42;;;;;;;5.63;2.75;;;;;;;;;;5053287;28;20180;-76
2021/08/26 15:03:08;;;;;;;3.80;2.55;;;;;;;;;;5054516;28;20610;-76
2021/08/26 15:05:34;;;;;;;4.65;2.42;;;;;;;;;;5054582;28;20164;-76
2021/08/26 15:08:00;;;;;;;4.43;3.08;;;;;;;;;;5054394;28;20610;-76
2021/08/26 15:10:26;;;;;;;5.38;2.50;;;;;;;;;;5053062;28;20175;-76
2021/08/26 15:12:53;;;;;;;5.15;2.78;;;;;;;;;;5054190;28;20176;-75
2021/08/26 15:15:20;;;;;;;3.85;3.10;;;;;;;;;;5054191;28;20218;-76
2021/08/26 15:17:46;;;;;;;4.97;3.33;;;;;;;;;;5054063;28;20204;-76
2021/08/26 15:20:12;;;;;;;6.25;2.90;;;;;;;;;;5054077;28;20176;-76
2021/08/26 15:22:38;;;;;;;4.07;3.00;;;;;;;;;;5052875;28;20214;-76
2021/08/26 15:25:04;;;;;;;4.97;3.03;;;;;;;;;;5054083;28;20173;-76
2021/08/26 15:27:30;;;;;;;5.13;3.55;;;;;;;;;;5053662;28;20258;-76
2021/08/26 15:29:56;;;;;;;8.38;4.20;;;;;;;;;;5053777;28;20531;-75
2021/08/26 15:32:23;;;;;;;9.75;4.18;;;;;;;;;;5052469;28;20177;-76
2021/08/26 15:34:49;;;;;;;4.40;3.90;;;;;;;;;;5053583;28;20577;-75
2021/08/26 15:37:16;;;;;;;4.43;4.00;;;;;;;;;;5053155;28;20188;-75
2021/08/26 15:39:42;;;;;;;3.63;3.28;;;;;;;;;;5053760;28;20161;-75
2021/08/26 15:42:08;;;;;;;4.35;3.55;;;;;;;;;;5054616;28;20690;-76
2021/08/26 15:44:35;;;;;;;4.47;3.63;;;;;;;;;;5053719;28;20165;-76
2021/08/26 15:47:01;;;;;;;6.50;3.67;;;;;;;;;;5053632;28;20227;-76
2021/08/26 15:49:28;;;;;;;7.00;3.50;;;;;;;;;;5053957;28;20169;-75
2021/08/26 15:52:01;;;;;;;6.93;3.47;;;;;;;;;;5053577;28;20172;-75
2021/08/26 15:54:36;;;;;;;4.20;3.30;;;;;;;;;;5053500;28;20634;-76
2021/08/26 16:00:17;;;;;;;6.78;3.38;;;;;;;;;;5053745;28;20573;-75
